Time;durP1;ratioP1;P1;durP2;ratioP2;P2;SDS_P1;SDS_P2;PMS_P1;PMS_P2;Temp;Humidity;BMP_temperature;BMP_pressure;BME280_temperature;BME280_humidity;BME280_pressure;Samples;Min_cycle;Max_cycle;Signal;HPM_P1;HPM_P2
2021/11/20 00:00:18;;;;;;;4.95;3.15;;;10.80;99.90;;;;;;7403977;19;20736;-90
2021/11/20 00:02:45;;;;;;;3.17;2.83;;;10.80;99.90;;;;;;7422941;19;20341;-92
2021/11/20 00:05:12;;;;;;;4.33;3.27;;;10.80;99.90;;;;;;7402670;19;20337;-92
2021/11/20 00:07:38;;;;;;;3.95;3.63;;;10.80;99.90;;;;;;7423812;19;20335;-92
2021/11/20 00:10:06;;;;;;;5.20;3.47;;;10.80;99.90;;;;;;7424316;19;20336;-92
2021/11/20 00:12:32;;;;;;;5.75;3.47;;;10.80;99.90;;;;;;7425823;19;20357;-93
2021/11/20 00:14:58;;;;;;;3.40;2.77;;;10.80;99.90;;;;;;7426517;19;20346;-93
2021/11/20 00:17:24;;;;;;;3.33;3.03;;;10.80;99.90;;;;;;7427390;19;20325;-93
2021/11/20 00:19:50;;;;;;;3.20;2.90;;;10.80;99.90;;;;;;7420561;19;20404;-91
2021/11/20 00:22:29;;;;;;;2.90;2.70;;;10.90;99.90;;;;;;7424108;19;20300;-91
2021/11/20 00:25:03;;;;;;;2.90;2.70;;;10.90;99.90;;;;;;7422984;19;20373;-91
2021/11/20 00:27:37;;;;;;;3.80;3.33;;;10.90;99.90;;;;;;7422894;19;20424;-93
2021/11/20 00:30:17;;;;;;;4.88;3.42;;;10.90;99.90;;;;;;7421259;19;20352;-93
2021/11/20 00:33:02;;;;;;;5.40;3.15;;;10.90;99.90;;;;;;7425227;19;20369;-91
2021/11/20 00:35:36;;;;;;;5.00;3.30;;;10.90;99.90;;;;;;7321000;19;2004330;-91
2021/11/20 00:38:02;;;;;;;3.85;3.03;;;10.90;99.90;;;;;;7423830;19;20340;-91
2021/11/20 00:40:36;;;;;;;3.33;3.03;;;10.90;99.90;;;;;;7423343;19;20387;-93
2021/11/20 00:43:02;;;;;;;5.10;2.95;;;10.90;99.90;;;;;;7423256;19;20331;-93
2021/11/20 00:45:28;;;;;;;2.97;2.73;;;11.00;99.90;;;;;;7425658;19;20770;-91
2021/11/20 00:47:58;;;;;;;3.95;3.00;;;11.00;99.90;;;;;;7423745;19;20345;-88
2021/11/20 00:50:24;;;;;;;3.05;2.75;;;11.00;99.90;;;;;;7424789;19;20356;-92
2021/11/20 00:52:50;;;;;;;3.30;3.00;;;11.00;99.90;;;;;;7426041;19;20376;-94
2021/11/20 00:55:19;;;;;;;3.17;2.88;;;11.00;99.90;;;;;;7423188;19;20329;-89
2021/11/20 00:57:45;;;;;;;3.45;2.97;;;11.00;99.90;;;;;;7422958;19;20344;-92
2021/11/20 01:00:13;;;;;;;5.27;2.90;;;11.10;99.90;;;;;;7425679;19;20321;-90
2021/11/20 01:02:40;;;;;;;3.10;2.83;;;11.10;99.90;;;;;;7422164;19;20434;-90
2021/11/20 01:16:50;;;;;;;3.90;2.83;;;11.10;99.90;;;;;;7420582;19;20301;-93
2021/11/20 01:19:16;;;;;;;3.87;2.63;;;11.30;99.90;;;;;;7399214;19;20320;-92
2021/11/20 01:22:21;;;;;;;4.20;2.85;;;11.10;99.90;;;;;;7322802;19;2004221;-92
2021/11/20 02:44:26;;;;;;;2.90;2.50;;;10.90;99.90;;;;;;7399952;19;20345;-91
2021/11/20 02:46:59;;;;;;;2.50;2.30;;;10.90;99.90;;;;;;7427529;19;20444;-92
2021/11/20 02:49:27;;;;;;;2.60;2.40;;;10.90;99.90;;;;;;7410304;19;20378;-91
2021/11/20 02:52:13;;;;;;;3.33;2.63;;;11.00;99.90;;;;;;7319712;19;2004393;-91
2021/11/20 02:57:43;;;;;;;3.45;3.13;;;10.90;99.90;;;;;;7399033;19;20341;-93
2021/11/20 03:00:12;;;;;;;2.72;2.47;;;10.90;99.90;;;;;;7407198;19;20348;-92
2021/11/20 03:02:43;;;;;;;3.95;3.00;;;10.90;99.90;;;;;;7427089;19;20345;-92
2021/11/20 03:08:07;;;;;;;4.30;2.78;;;10.90;99.90;;;;;;7390438;19;20333;-92
2021/11/20 04:08:34;;;;;;;4.10;3.40;;;10.70;99.90;;;;;;7381929;19;20336;-90
2021/11/20 04:11:27;;;;;;;4.05;3.72;;;10.70;99.90;;;;;;7413465;19;20321;-93
2021/11/20 04:13:54;;;;;;;5.38;3.92;;;10.60;99.90;;;;;;7426378;19;20289;-92
2021/11/20 04:16:27;;;;;;;4.80;3.88;;;10.60;99.90;;;;;;7403099;19;20337;-93
2021/11/20 06:50:14;;;;;;;4.25;3.60;;;10.10;99.90;;;;;;7340847;19;20342;-90
2021/11/20 07:08:11;;;;;;;4.95;4.45;;;10.10;99.90;;;;;;7376000;19;20356;-90
2021/11/20 07:10:37;;;;;;;4.53;4.20;;;10.10;99.90;;;;;;7419047;19;20344;-90
2021/11/20 07:13:04;;;;;;;4.63;4.22;;;10.00;99.90;;;;;;7417248;19;20335;-90
2021/11/20 07:15:30;;;;;;;5.68;5.13;;;10.10;99.90;;;;;;7416200;19;20308;-90
2021/11/20 07:23:38;;;;;;;6.32;4.43;;;10.10;99.90;;;;;;7368180;19;20320;-90
2021/11/20 07:26:06;;;;;;;5.60;5.03;;;10.20;99.90;;;;;;7421430;19;20340;-90
2021/11/20 07:28:31;;;;;;;4.63;4.22;;;10.20;99.90;;;;;;7417183;19;20349;-91
2021/11/20 07:30:57;;;;;;;4.45;4.15;;;10.30;99.90;;;;;;7418113;19;20325;-90
2021/11/20 07:33:23;;;;;;;4.60;4.20;;;10.10;99.90;;;;;;7425821;19;20296;-90
2021/11/20 07:35:51;;;;;;;5.10;4.60;;;10.20;99.90;;;;;;7425485;19;20332;-91
2021/11/20 07:38:19;;;;;;;4.28;3.88;;;10.20;99.90;;;;;;7423216;19;20402;-91
2021/11/20 07:40:45;;;;;;;4.65;4.25;;;10.20;99.90;;;;;;7422980;19;20325;-89
2021/11/20 07:43:11;;;;;;;7.70;5.07;;;10.20;99.90;;;;;;7424639;19;20360;-91
2021/11/20 07:48:52;;;;;;;5.73;4.50;;;10.10;99.90;;;;;;7419128;19;20329;-91
2021/11/20 07:51:19;;;;;;;4.20;3.70;;;10.20;99.90;;;;;;7425297;19;20341;-88
2021/11/20 07:53:48;;;;;;;4.35;3.20;;;10.20;99.90;;;;;;7423672;19;20329;-89
2021/11/20 07:56:21;;;;;;;3.67;3.38;;;10.40;99.90;;;;;;7420086;19;21147;-89
2021/11/20 07:58:51;;;;;;;4.80;3.65;;;10.20;99.90;;;;;;7422712;19;20395;-90
2021/11/20 08:01:19;;;;;;;4.68;4.20;;;10.20;99.90;;;;;;7422032;19;20324;-91
2021/11/20 08:03:44;;;;;;;3.92;3.08;;;10.20;99.90;;;;;;7423800;19;20349;-91
2021/11/20 08:06:33;;;;;;;4.05;3.65;;;10.20;99.90;;;;;;7319599;19;2004231;-90
2021/11/20 08:15:27;;;;;;;2.83;2.57;;;10.20;99.90;;;;;;7406811;19;20356;-91
2021/11/20 08:18:12;;;;;;;3.63;3.33;;;10.20;99.90;;;;;;7319824;19;2004308;-90
2021/11/20 08:20:45;;;;;;;3.35;3.05;;;10.40;99.90;;;;;;7422415;19;20301;-90
2021/11/20 08:23:33;;;;;;;3.27;2.60;;;10.30;99.90;;;;;;7314984;19;2008482;-90
2021/11/20 08:26:00;;;;;;;2.97;2.40;;;10.10;99.90;;;;;;7422002;19;20341;-90
2021/11/20 08:28:29;;;;;;;3.00;2.80;;;10.40;99.90;;;;;;7423170;19;20337;-90
2021/11/20 08:30:55;;;;;;;2.90;2.70;;;10.30;99.90;;;;;;7421595;19;20353;-91
2021/11/20 08:33:21;;;;;;;3.60;2.97;;;10.30;99.90;;;;;;7423035;19;20337;-89
2021/11/20 08:36:14;;;;;;;3.03;2.45;;;10.30;99.90;;;;;;7369842;19;20360;-92
2021/11/20 08:45:11;;;;;;;3.33;2.77;;;10.40;99.90;;;;;;7346291;19;20336;-85
2021/11/20 08:47:43;;;;;;;3.17;2.88;;;10.40;99.90;;;;;;7421749;19;20361;-89
2021/11/20 08:50:12;;;;;;;2.78;2.50;;;10.50;99.90;;;;;;7417373;19;20704;-88
2021/11/20 09:30:50;;;;;;;3.40;3.10;;;10.60;99.90;;;;;;7378420;19;20317;-91
2021/11/20 09:33:19;;;;;;;3.90;3.20;;;10.70;99.90;;;;;;7403799;19;20261;-91
2021/11/20 12:06:39;;;;;;;13.20;4.60;;;11.50;99.90;;;;;;7439447;19;20345;-90
2021/11/20 12:14:01;;;;;;;4.50;4.10;;;11.50;99.90;;;;;;7422336;19;20303;-91
2021/11/20 12:24:29;;;;;;;5.93;4.00;;;11.50;99.90;;;;;;7427991;19;20304;-90
2021/11/20 12:45:15;;;;;;;4.10;3.80;;;11.50;99.90;;;;;;7416054;19;20329;-91
2021/11/20 12:51:02;;;;;;;5.10;4.60;;;11.40;99.90;;;;;;7416898;19;20309;-89
2021/11/20 12:53:58;;;;;;;4.78;4.15;;;11.50;99.90;;;;;;7420837;19;20342;-90
2021/11/20 12:56:39;;;;;;;4.80;3.95;;;11.40;99.90;;;;;;7317904;19;2004021;-91
2021/11/20 12:59:25;;;;;;;4.78;4.28;;;11.20;99.90;;;;;;7417410;19;20337;-90
2021/11/20 13:02:00;;;;;;;5.07;4.50;;;11.40;99.90;;;;;;7419246;19;20333;-92
2021/11/20 13:04:38;;;;;;;4.18;3.83;;;11.40;99.90;;;;;;7416311;19;20324;-90
2021/11/20 13:10:08;;;;;;;8.57;4.20;;;11.30;99.90;;;;;;7414065;19;20396;-91
2021/11/20 13:21:54;;;;;;;4.25;3.70;;;11.40;99.90;;;;;;7396997;19;20336;-90
2021/11/20 13:30:13;;;;;;;4.43;3.73;;;11.20;99.90;;;;;;7396075;19;20341;-91
2021/11/20 13:32:52;;;;;;;3.50;3.20;;;11.30;99.90;;;;;;7422274;19;20323;-92
2021/11/20 13:35:23;;;;;;;5.00;3.47;;;11.30;99.90;;;;;;7416344;19;20324;-92
2021/11/20 13:37:58;;;;;;;4.68;3.67;;;11.20;99.90;;;;;;7418101;19;20178;-92
2021/11/20 13:40:27;;;;;;;4.07;3.13;;;11.20;99.90;;;;;;7317139;19;2004025;-90
2021/11/20 13:42:53;;;;;;;3.97;3.58;;;11.20;99.90;;;;;;7390700;19;20348;-91
2021/11/20 13:45:19;;;;;;;4.03;3.63;;;11.30;99.90;;;;;;7414226;19;20365;-90
2021/11/20 13:47:47;;;;;;;3.97;3.67;;;11.20;99.90;;;;;;7416810;19;20325;-93
2021/11/20 13:50:13;;;;;;;3.80;3.50;;;11.20;99.90;;;;;;7414166;19;20325;-92
2021/11/20 14:23:10;;;;;;;4.63;4.18;;;11.10;99.90;;;;;;7410491;19;20297;-90
2021/11/20 14:25:36;;;;;;;3.83;3.53;;;11.10;99.90;;;;;;7418660;19;20336;-92
2021/11/20 14:28:02;;;;;;;3.58;3.28;;;11.10;99.90;;;;;;7413886;19;20495;-90
2021/11/20 14:30:46;;;;;;;5.43;4.07;;;11.00;99.90;;;;;;7415379;19;20336;-91
2021/11/20 14:33:17;;;;;;;4.63;4.22;;;11.00;99.90;;;;;;7411046;19;20325;-91
2021/11/20 14:35:54;;;;;;;5.10;3.97;;;10.90;99.90;;;;;;7412447;19;20328;-91
2021/11/20 14:38:20;;;;;;;5.03;4.45;;;10.90;99.90;;;;;;7408414;19;20329;-92
2021/11/20 14:40:49;;;;;;;4.60;4.03;;;10.90;99.90;;;;;;7409052;19;20331;-91
2021/11/20 14:43:22;;;;;;;4.22;3.83;;;10.90;99.90;;;;;;7409952;19;20361;-89
2021/11/20 14:45:48;;;;;;;3.78;3.38;;;10.90;99.90;;;;;;7413118;19;20412;-92
2021/11/20 14:48:19;;;;;;;3.70;3.33;;;10.90;99.90;;;;;;7414094;19;20324;-92
2021/11/20 14:50:49;;;;;;;6.60;3.90;;;10.90;99.90;;;;;;7415438;19;20320;-92
2021/11/20 14:53:15;;;;;;;4.35;3.75;;;10.90;99.90;;;;;;7394183;19;20321;-91
2021/11/20 15:01:41;;;;;;;5.40;4.13;;;10.80;99.90;;;;;;7377550;19;20349;-90
2021/11/20 15:04:32;;;;;;;5.38;4.13;;;10.80;99.90;;;;;;7395774;19;20297;-93
2021/11/20 15:06:59;;;;;;;3.85;3.45;;;10.80;99.90;;;;;;7399698;19;20284;-93
2021/11/20 15:09:27;;;;;;;4.87;4.47;;;10.80;99.90;;;;;;7416152;19;20311;-92
2021/11/20 15:11:54;;;;;;;5.45;4.65;;;10.80;99.90;;;;;;7392363;19;20289;-92
2021/11/20 15:14:22;;;;;;;5.22;4.72;;;10.80;99.90;;;;;;7421525;19;20300;-91
2021/11/20 15:40:15;;;;;;;4.07;3.67;;;10.60;99.90;;;;;;7370988;19;20348;-90
2021/11/20 15:42:41;;;;;;;7.57;4.30;;;10.60;99.90;;;;;;7397176;19;20304;-90
2021/11/20 15:45:08;;;;;;;4.63;4.00;;;10.60;99.90;;;;;;7416051;19;20447;-92
2021/11/20 15:47:35;;;;;;;4.25;3.85;;;10.70;99.90;;;;;;7416505;19;20352;-92
2021/11/20 15:50:01;;;;;;;4.03;3.70;;;10.60;99.90;;;;;;7417692;19;20301;-90
2021/11/20 15:52:27;;;;;;;4.75;4.30;;;10.60;99.90;;;;;;7406212;19;20349;-90
2021/11/20 15:54:53;;;;;;;4.22;3.90;;;10.70;99.90;;;;;;7420405;19;20377;-91
2021/11/20 15:57:21;;;;;;;4.82;4.32;;;10.60;99.90;;;;;;7422504;19;20428;-91
2021/11/20 15:59:49;;;;;;;5.13;3.95;;;10.60;99.90;;;;;;7418989;19;20331;-90
2021/11/20 16:02:16;;;;;;;4.95;4.43;;;10.60;99.90;;;;;;7415572;19;20336;-90
2021/11/20 16:04:45;;;;;;;4.82;3.92;;;10.60;99.90;;;;;;7422302;19;20281;-90
2021/11/20 16:07:24;;;;;;;4.07;3.78;;;10.60;99.90;;;;;;7413511;19;20308;-89
2021/11/20 16:09:50;;;;;;;4.22;3.83;;;10.60;99.90;;;;;;7425931;19;20331;-90
2021/11/20 16:15:23;;;;;;;4.43;3.73;;;10.60;99.90;;;;;;7401422;19;20325;-91
2021/11/20 16:17:51;;;;;;;4.03;3.70;;;10.50;99.90;;;;;;7409990;19;20352;-91
2021/11/20 16:20:20;;;;;;;3.70;3.40;;;10.50;99.90;;;;;;7413814;19;20368;-91
2021/11/20 16:22:47;;;;;;;4.70;4.15;;;10.50;99.90;;;;;;7423561;19;20313;-93
2021/11/20 16:25:13;;;;;;;4.20;3.80;;;10.50;99.90;;;;;;7423308;19;20348;-91
2021/11/20 16:27:39;;;;;;;3.72;3.42;;;10.50;99.90;;;;;;7421785;19;20344;-91
2021/11/20 16:36:10;;;;;;;4.03;3.63;;;10.50;99.90;;;;;;7409813;19;20651;-92
2021/11/20 19:22:57;;;;;;;4.43;3.72;;;9.90;99.90;;;;;;7378933;19;20348;-88
2021/11/20 19:25:26;;;;;;;4.63;3.93;;;9.90;99.90;;;;;;7402143;19;20314;-88
2021/11/20 19:27:53;;;;;;;4.18;3.88;;;9.90;99.90;;;;;;7420691;19;20328;-92
2021/11/20 19:30:19;;;;;;;4.28;3.88;;;9.90;99.90;;;;;;7420224;19;20339;-94
2021/11/20 19:32:44;;;;;;;4.70;4.30;;;10.00;99.90;;;;;;7422922;19;20309;-90
2021/11/20 19:35:11;;;;;;;3.92;3.60;;;9.90;99.90;;;;;;7420570;19;20329;-89
2021/11/20 19:37:37;;;;;;;6.82;4.45;;;9.90;99.90;;;;;;7422741;19;20321;-91
2021/11/20 19:40:04;;;;;;;4.47;3.80;;;9.90;99.90;;;;;;7420289;19;20333;-91
2021/11/20 19:42:31;;;;;;;4.10;3.70;;;9.90;99.90;;;;;;7420119;19;20316;-90
2021/11/20 19:44:57;;;;;;;4.93;4.27;;;9.90;99.90;;;;;;7420085;19;20331;-90
2021/11/20 19:47:23;;;;;;;4.57;4.18;;;9.90;99.90;;;;;;7420307;19;20321;-90
2021/11/20 19:49:49;;;;;;;5.20;4.27;;;9.90;99.90;;;;;;7419705;19;20375;-91
2021/11/20 19:52:15;;;;;;;4.38;3.97;;;9.90;99.90;;;;;;7421469;19;20375;-91
2021/11/20 19:54:40;;;;;;;4.82;4.40;;;9.90;99.90;;;;;;7417648;19;20315;-90
2021/11/20 19:57:06;;;;;;;4.40;4.10;;;9.80;99.90;;;;;;7420493;19;20320;-89
2021/11/20 19:59:32;;;;;;;4.80;4.40;;;9.80;99.90;;;;;;7416512;19;20398;-89
2021/11/20 20:01:57;;;;;;;4.60;4.20;;;9.80;99.90;;;;;;7420623;19;20349;-91
2021/11/20 20:04:23;;;;;;;5.93;4.75;;;9.80;99.90;;;;;;7420238;19;20328;-91
2021/11/20 20:06:49;;;;;;;5.00;4.50;;;9.80;99.90;;;;;;7420529;19;20400;-91
2021/11/20 20:09:14;;;;;;;5.05;4.53;;;9.70;99.90;;;;;;7417260;19;20340;-91
2021/11/20 20:11:41;;;;;;;5.50;4.97;;;9.80;99.90;;;;;;7420149;19;20354;-91
2021/11/20 20:14:08;;;;;;;6.00;5.40;;;9.70;99.90;;;;;;7420621;19;20317;-90
2021/11/20 20:16:34;;;;;;;5.00;4.50;;;9.80;99.90;;;;;;7419821;19;20387;-89
2021/11/20 20:19:00;;;;;;;6.25;5.15;;;9.80;99.90;;;;;;7418834;19;20313;-89
2021/11/20 20:21:26;;;;;;;6.07;5.47;;;9.80;99.90;;;;;;7422959;19;20287;-92
2021/11/20 20:23:54;;;;;;;6.18;4.90;;;9.70;99.90;;;;;;7420094;19;20344;-89
2021/11/20 20:26:19;;;;;;;6.50;5.50;;;9.70;99.90;;;;;;7420718;19;20321;-90
2021/11/20 20:28:45;;;;;;;5.97;5.47;;;9.70;99.90;;;;;;7420351;19;20304;-88
2021/11/20 20:31:12;;;;;;;5.68;4.97;;;9.80;99.90;;;;;;7417584;19;20379;-90
2021/11/20 20:33:38;;;;;;;5.75;5.18;;;9.70;99.90;;;;;;7420878;19;20343;-88
2021/11/20 20:36:04;;;;;;;6.78;5.50;;;9.70;99.90;;;;;;7418456;19;20376;-90
2021/11/20 20:38:30;;;;;;;5.72;5.15;;;9.70;99.90;;;;;;7417014;19;20369;-92
2021/11/20 20:40:55;;;;;;;6.03;5.18;;;9.80;99.90;;;;;;7420125;19;20297;-90
2021/11/20 20:43:21;;;;;;;6.07;5.53;;;9.70;99.90;;;;;;7418210;19;20428;-90
2021/11/20 20:45:46;;;;;;;6.97;5.97;;;9.70;99.90;;;;;;7416997;19;20320;-90
2021/11/20 20:48:13;;;;;;;7.07;6.33;;;9.60;99.90;;;;;;7419219;19;20321;-92
2021/11/20 20:50:38;;;;;;;7.28;6.18;;;9.70;99.90;;;;;;7418467;19;20340;-90
2021/11/20 20:53:04;;;;;;;6.05;5.45;;;9.80;99.90;;;;;;7419460;19;20365;-89
2021/11/20 20:55:30;;;;;;;6.72;5.60;;;9.60;99.90;;;;;;7418000;19;20333;-92
2021/11/20 20:57:56;;;;;;;5.80;5.30;;;9.60;99.90;;;;;;7418842;19;20341;-91
2021/11/20 21:00:24;;;;;;;6.25;5.25;;;9.60;99.90;;;;;;7419417;19;20346;-89
2021/11/20 21:02:50;;;;;;;5.55;5.05;;;9.60;99.90;;;;;;7418497;19;20814;-89
2021/11/20 21:05:16;;;;;;;5.88;5.22;;;9.60;99.90;;;;;;7414800;19;20374;-89
2021/11/20 21:07:43;;;;;;;6.20;5.70;;;9.60;99.90;;;;;;7419112;19;20384;-89
2021/11/20 21:10:09;;;;;;;6.38;5.78;;;9.60;99.90;;;;;;7417253;19;20368;-88
2021/11/20 21:12:36;;;;;;;6.45;5.78;;;9.60;99.90;;;;;;7416973;19;20369;-91
2021/11/20 21:15:05;;;;;;;7.35;5.85;;;9.60;99.90;;;;;;7417178;19;20308;-90
2021/11/20 21:17:31;;;;;;;7.17;6.00;;;9.60;99.90;;;;;;7423182;19;20337;-90
2021/11/20 21:22:43;;;;;;;8.50;5.93;;;9.60;99.90;;;;;;7422822;19;20313;-89
2021/11/20 21:25:09;;;;;;;6.77;6.07;;;9.50;99.90;;;;;;7425313;19;20309;-90
2021/11/20 23:06:08;;;;;;;5.97;5.35;;;9.20;99.90;;;;;;7362243;19;20369;-87
